createdAt,value
2019-06-10T00:02:07.300Z,66.47
2019-06-10T00:04:41.501Z,66.08
2019-06-10T00:07:14.145Z,67.02
2019-06-10T00:09:47.233Z,66.12
2019-06-10T00:12:21.004Z,66.98
2019-06-10T00:14:53.521Z,66.09
2019-06-10T00:17:27.202Z,66.40
2019-06-10T00:20:01.947Z,67.23
2019-06-10T00:22:33.747Z,66.93
2019-06-10T00:25:08.544Z,65.67
2019-06-10T00:27:42.082Z,65.66
2019-06-10T00:30:17.167Z,67.07
2019-06-10T00:32:51.485Z,66.24
2019-06-10T00:35:23.630Z,65.90
2019-06-10T00:37:56.214Z,65.48
2019-06-10T00:40:28.564Z,65.07
2019-06-10T00:43:02.621Z,66.54
2019-06-10T00:45:34.990Z,67.20
2019-06-10T00:48:20.214Z,66.15
2019-06-10T00:50:42.638Z,66.16
2019-06-10T00:53:15.622Z,66.32
2019-06-10T00:55:47.883Z,66.48
2019-06-10T00:58:22.488Z,65.97
2019-06-10T01:00:55.029Z,67.04
2019-06-10T01:03:27.982Z,66.38
2019-06-10T01:06:02.586Z,66.99
2019-06-10T01:08:34.382Z,67.72
2019-06-10T01:11:12.585Z,67.61
2019-06-10T01:13:41.428Z,67.78
2019-06-10T01:16:15.538Z,67.60
2019-06-10T01:18:53.596Z,67.80
2019-06-10T01:21:27.170Z,67.57
2019-06-10T01:24:01.214Z,68.59
2019-06-10T01:26:45.391Z,69.20
2019-06-10T01:29:21.037Z,68.38
2019-06-10T01:31:55.698Z,68.42
2019-06-10T01:34:28.051Z,69.12
2019-06-10T01:37:01.476Z,69.39
2019-06-10T01:39:34.153Z,68.90
2019-06-10T01:42:06.509Z,69.17
2019-06-10T01:44:41.240Z,69.50
2019-06-10T01:47:14.640Z,70.43
2019-06-10T01:49:47.502Z,70.16
2019-06-10T01:52:21.170Z,70.88
2019-06-10T01:54:53.883Z,71.08
2019-06-10T01:57:26.427Z,70.71
2019-06-10T02:00:01.023Z,70.95
2019-06-10T02:02:35.212Z,71.44
2019-06-10T02:05:12.606Z,71.90
2019-06-10T02:07:43.643Z,72.39
2019-06-10T02:10:18.604Z,72.73
2019-06-10T02:12:50.894Z,72.53
2019-06-10T02:15:24.354Z,72.84
2019-06-10T02:17:56.636Z,71.48
2019-06-10T02:20:31.633Z,68.54
2019-06-10T02:23:03.424Z,65.87
2019-06-10T02:25:35.780Z,63.38
2019-06-10T02:28:08.171Z,62.75
2019-06-10T02:30:50.348Z,62.99
2019-06-10T02:33:19.004Z,65.59
2019-06-10T02:35:53.820Z,66.89
2019-06-10T02:38:34.064Z,68.49
2019-06-10T02:41:04.096Z,69.58
2019-06-10T02:43:37.937Z,69.91
2019-06-10T02:46:15.015Z,71.16
2019-06-10T02:48:44.961Z,70.19
2019-06-10T02:51:22.106Z,68.56
2019-06-10T02:53:54.020Z,69.59
2019-06-10T02:56:30.683Z,64.40
2019-06-10T02:59:03.193Z,63.44
2019-06-10T03:01:37.965Z,63.62
2019-06-10T03:04:08.597Z,64.56
2019-06-10T03:06:44.690Z,62.57
2019-06-10T03:09:16.616Z,64.63
2019-06-10T03:11:53.324Z,64.76
2019-06-10T03:14:25.396Z,65.65
2019-06-10T03:16:59.383Z,64.57
2019-06-10T03:19:46.892Z,65.90
2019-06-10T03:22:13.603Z,61.29
2019-06-10T03:24:46.054Z,63.09
2019-06-10T03:27:26.590Z,64.32
2019-06-10T03:30:16.955Z,64.67
2019-06-10T03:32:55.644Z,64.69
2019-06-10T03:35:28.529Z,63.32
2019-06-10T03:38:03.004Z,62.74
2019-06-10T03:40:39.630Z,62.52
2019-06-10T03:43:12.010Z,60.25
2019-06-10T03:45:45.091Z,58.84
2019-06-10T03:48:17.427Z,61.07
2019-06-10T03:50:49.700Z,62.07
2019-06-10T03:53:24.303Z,60.62
2019-06-10T03:55:56.393Z,61.93
2019-06-10T03:58:29.259Z,61.79
2019-06-10T04:01:03.283Z,60.26
2019-06-10T04:03:36.321Z,59.17
2019-06-10T04:06:09.235Z,60.22
2019-06-10T04:11:15.630Z,58.51
2019-06-10T04:13:47.894Z,57.94
2019-06-10T04:16:22.619Z,59.15
2019-06-10T04:18:56.071Z,57.00
2019-06-10T04:21:28.453Z,58.81
2019-06-10T04:24:02.233Z,56.08
2019-06-10T04:26:35.334Z,56.04
2019-06-10T04:29:08.893Z,55.87
2019-06-10T04:31:43.704Z,56.28
2019-06-10T04:34:16.544Z,55.64
2019-06-10T04:36:52.543Z,56.20
2019-06-10T04:39:27.658Z,57.08
2019-06-10T04:42:02.444Z,54.36
2019-06-10T04:44:34.503Z,54.04
2019-06-10T04:47:06.567Z,53.41
2019-06-10T04:49:38.921Z,54.70
2019-06-10T04:52:12.234Z,55.19
2019-06-10T04:54:44.962Z,54.18
2019-06-10T04:57:20.778Z,54.42
2019-06-10T04:59:55.566Z,55.66
2019-06-10T05:02:29.041Z,53.15
2019-06-10T05:05:02.937Z,53.17
2019-06-10T05:07:37.080Z,53.72
2019-06-10T05:10:12.271Z,53.12
2019-06-10T05:12:43.968Z,52.84
2019-06-10T05:15:16.276Z,53.10
2019-06-10T05:17:49.238Z,53.99
2019-06-10T05:20:28.329Z,53.76
2019-06-10T05:23:06.479Z,53.88
2019-06-10T05:25:38.725Z,54.24
2019-06-10T05:28:12.305Z,54.26
2019-06-10T05:30:44.711Z,54.25
2019-06-10T05:33:17.027Z,54.52
2019-06-10T05:35:49.358Z,53.76
2019-06-10T05:38:24.015Z,53.78
2019-06-10T05:40:59.921Z,53.62
2019-06-10T05:43:34.437Z,54.24
2019-06-10T05:46:06.923Z,54.08
2019-06-10T05:48:43.781Z,54.29
2019-06-10T05:51:16.207Z,54.56
2019-06-10T05:53:49.375Z,54.36
2019-06-10T05:56:23.361Z,54.12
2019-06-10T05:58:55.633Z,53.85
2019-06-10T06:01:28.038Z,54.02
2019-06-10T06:04:03.076Z,53.16
2019-06-10T06:06:35.458Z,53.06
2019-06-10T06:09:07.945Z,53.52
2019-06-10T06:11:43.202Z,53.11
2019-06-10T06:14:16.055Z,52.94
2019-06-10T06:16:48.269Z,52.30
2019-06-10T06:19:23.166Z,52.30
2019-06-10T06:21:55.477Z,52.21
2019-06-10T06:24:33.950Z,52.69
2019-06-10T06:27:09.631Z,52.61
2019-06-10T06:29:46.077Z,51.55
2019-06-10T06:32:23.572Z,50.82
2019-06-10T06:34:57.916Z,50.12
2019-06-10T06:37:42.765Z,49.64
2019-06-10T06:40:17.032Z,49.71
2019-06-10T06:42:49.270Z,49.98
2019-06-10T06:45:23.922Z,50.40
2019-06-10T06:47:57.153Z,48.52
2019-06-10T06:50:33.091Z,48.83
2019-06-10T06:53:29.971Z,48.25
2019-06-10T06:55:39.784Z,47.72
2019-06-10T06:58:16.317Z,47.26
2019-06-10T07:01:05.212Z,47.05
2019-06-10T07:03:29.666Z,47.36
2019-06-10T07:06:02.936Z,47.29
2019-06-10T07:08:37.762Z,47.25
2019-06-10T07:11:13.319Z,46.48
2019-06-10T07:13:46.182Z,46.57
2019-06-10T07:16:19.140Z,46.30
2019-06-10T07:18:54.016Z,45.78
2019-06-10T07:21:26.252Z,45.72
2019-06-10T07:23:58.628Z,45.82
2019-06-10T07:26:34.084Z,46.49
2019-06-10T07:29:05.230Z,46.41
2019-06-10T07:31:38.438Z,45.84
2019-06-10T07:34:12.974Z,45.27
2019-06-10T07:36:45.605Z,44.61
2019-06-10T07:39:18.030Z,44.65
2019-06-10T07:41:52.776Z,43.83
2019-06-10T07:44:24.296Z,43.41
2019-06-10T07:46:57.603Z,43.10
2019-06-10T07:49:32.143Z,44.09
2019-06-10T07:52:15.726Z,44.54
2019-06-10T07:54:39.263Z,44.88
2019-06-10T07:57:13.489Z,43.64
2019-06-10T07:59:46.161Z,43.16
2019-06-10T08:02:18.914Z,42.60
2019-06-10T08:04:54.261Z,42.21
2019-06-10T08:07:25.518Z,42.84
2019-06-10T08:09:58.922Z,41.77
2019-06-10T08:12:32.571Z,40.66
2019-06-10T08:15:07.129Z,40.31
2019-06-10T08:17:42.489Z,40.05
2019-06-10T08:20:16.339Z,41.08
2019-06-10T08:22:58.851Z,39.49
2019-06-10T08:25:33.338Z,39.20
2019-06-10T08:28:09.176Z,38.11
2019-06-10T08:30:46.099Z,38.30
2019-06-10T08:33:22.475Z,38.08
2019-06-10T08:35:59.899Z,36.66
2019-06-10T08:38:28.955Z,38.28
2019-06-10T08:41:03.302Z,38.33
2019-06-10T08:43:36.479Z,38.35
2019-06-10T08:46:08.957Z,38.83
2019-06-10T08:48:43.865Z,38.44
2019-06-10T08:51:17.748Z,35.24
2019-06-10T08:53:52.918Z,34.86
2019-06-10T08:56:24.775Z,35.23
2019-06-10T08:59:06.268Z,35.99
2019-06-10T09:01:48.352Z,35.82
2019-06-10T09:04:18.475Z,35.90
2019-06-10T09:06:53.816Z,35.77
2019-06-10T09:09:27.734Z,34.06
2019-06-10T09:12:00.124Z,34.00
2019-06-10T09:14:33.520Z,34.75
2019-06-10T09:17:05.915Z,33.31
2019-06-10T09:19:38.777Z,33.10
2019-06-10T09:22:12.626Z,33.51
2019-06-10T09:24:48.738Z,34.08
2019-06-10T09:27:19.070Z,32.78
2019-06-10T09:29:55.281Z,33.84
2019-06-10T09:32:26.023Z,35.30
2019-06-10T09:34:58.397Z,33.66
2019-06-10T09:37:32.577Z,33.58
2019-06-10T09:40:12.321Z,33.87
2019-06-10T09:42:49.721Z,32.36
2019-06-10T09:45:22.364Z,31.68
2019-06-10T09:47:59.814Z,33.05
2019-06-10T09:50:47.020Z,32.36
2019-06-10T09:53:32.102Z,31.61
2019-06-10T09:55:55.478Z,30.92
2019-06-10T09:58:27.093Z,31.43
2019-06-10T10:01:03.364Z,31.56
2019-06-10T10:03:36.168Z,31.46
2019-06-10T10:06:15.303Z,30.89
2019-06-10T10:08:51.475Z,30.01
2019-06-10T10:11:28.384Z,28.67
2019-06-10T10:13:59.703Z,27.76
2019-06-10T10:16:34.009Z,27.04
2019-06-10T10:19:13.149Z,26.84
2019-06-10T10:21:50.207Z,26.95
2019-06-10T10:24:23.025Z,27.31
2019-06-10T10:27:01.045Z,26.56
2019-06-10T10:29:32.847Z,26.69
2019-06-10T10:32:05.672Z,26.28
2019-06-10T10:34:38.071Z,26.69
2019-06-10T10:37:13.551Z,27.18
2019-06-10T10:39:46.703Z,26.83
2019-06-10T10:42:19.099Z,25.62
2019-06-10T10:44:58.618Z,26.16
2019-06-10T10:47:27.797Z,25.92
2019-06-10T10:50:02.855Z,25.57
2019-06-10T10:52:36.606Z,25.42
2019-06-10T10:55:13.073Z,24.50
2019-06-10T10:57:45.383Z,25.24
2019-06-10T11:00:22.615Z,25.81
2019-06-10T11:02:54.810Z,25.66
2019-06-10T11:05:33.382Z,25.10
2019-06-10T11:08:13.516Z,24.67
2019-06-10T11:10:49.561Z,24.51
2019-06-10T11:13:26.553Z,24.73
2019-06-10T11:16:00.288Z,24.65
2019-06-10T11:18:33.940Z,25.43
2019-06-10T11:21:06.652Z,25.53
2019-06-10T11:23:39.133Z,25.19
2019-06-10T11:26:14.082Z,25.35
2019-06-10T11:28:47.499Z,25.37
2019-06-10T11:31:23.909Z,26.23
2019-06-10T11:33:59.161Z,26.53
2019-06-10T11:36:38.602Z,25.37
2019-06-10T11:39:13.366Z,25.02
2019-06-10T11:41:48.175Z,25.09
2019-06-10T11:44:22.795Z,24.98
2019-06-10T11:47:03.254Z,25.65
2019-06-10T11:49:35.778Z,26.75
2019-06-10T11:52:08.415Z,27.14
2019-06-10T11:54:53.734Z,26.57
2019-06-10T11:57:18.387Z,26.05
2019-06-10T11:59:52.835Z,24.72
2019-06-10T12:02:25.307Z,24.94
2019-06-10T12:05:00.538Z,25.48
2019-06-10T12:07:33.169Z,24.46
2019-06-10T12:10:09.655Z,24.72
2019-06-10T12:12:43.413Z,23.91
2019-06-10T12:15:18.528Z,23.97
2019-06-10T12:17:58.642Z,23.67
2019-06-10T12:20:28.375Z,23.91
2019-06-10T12:23:02.135Z,25.21
2019-06-10T12:25:39.602Z,25.19
2019-06-10T12:28:09.395Z,25.26
2019-06-10T12:30:42.443Z,25.29
2019-06-10T12:33:21.416Z,25.21
2019-06-10T12:35:51.835Z,24.43
2019-06-10T12:38:24.120Z,24.97
2019-06-10T12:40:58.979Z,25.48
2019-06-10T12:43:32.699Z,25.82
2019-06-10T12:46:07.258Z,26.39
2019-06-10T12:48:42.926Z,26.45
2019-06-10T12:51:15.492Z,25.55
2019-06-10T12:53:49.153Z,26.30
2019-06-10T12:56:22.761Z,26.12
2019-06-10T12:58:58.086Z,26.34
2019-06-10T13:01:32.963Z,26.97
2019-06-10T13:04:07.472Z,25.92
2019-06-10T13:06:40.595Z,25.97
2019-06-10T13:09:13.353Z,27.19
2019-06-10T13:11:48.613Z,26.03
2019-06-10T13:14:22.409Z,26.10
2019-06-10T13:16:55.821Z,26.41
2019-06-10T13:19:29.484Z,26.14
2019-06-10T13:22:05.963Z,25.94
2019-06-10T13:24:37.673Z,26.53
2019-06-10T13:27:13.698Z,27.93
2019-06-10T13:29:48.677Z,26.01
2019-06-10T13:32:26.605Z,26.80
2019-06-10T13:34:58.834Z,26.81
2019-06-10T13:37:32.174Z,26.21
2019-06-10T13:40:08.587Z,25.79
2019-06-10T13:42:42.344Z,26.97
2019-06-10T13:45:15.841Z,27.45
2019-06-10T13:47:48.388Z,28.06
2019-06-10T13:50:24.994Z,27.77
2019-06-10T13:52:58.733Z,27.76
2019-06-10T13:55:32.818Z,28.09
2019-06-10T13:58:08.355Z,26.84
2019-06-10T14:00:46.183Z,25.74
2019-06-10T14:03:16.476Z,25.73
2019-06-10T14:05:49.020Z,25.09
2019-06-10T14:08:23.350Z,25.47
2019-06-10T14:10:55.947Z,25.80
2019-06-10T14:13:29.690Z,26.55
2019-06-10T14:16:03.681Z,27.04
2019-06-10T14:18:36.550Z,28.31
2019-06-10T14:21:12.866Z,27.79
2019-06-10T14:23:43.125Z,28.26
2019-06-10T14:26:17.128Z,28.39
2019-06-10T14:28:52.591Z,29.02
2019-06-10T14:31:43.862Z,28.79
2019-06-10T14:34:18.689Z,29.25
2019-06-10T14:36:52.519Z,29.45
2019-06-10T14:39:26.088Z,29.15
2019-06-10T14:41:59.403Z,29.27
2019-06-10T14:44:32.698Z,29.33
2019-06-10T14:47:08.798Z,28.72
2019-06-10T14:49:42.479Z,28.87
2019-06-10T14:52:16.829Z,29.03
2019-06-10T14:54:53.228Z,29.05
2019-06-10T14:57:34.038Z,29.08
2019-06-10T15:00:13.216Z,29.19
2019-06-10T15:02:44.282Z,29.39
2019-06-10T15:05:17.537Z,29.74
2019-06-10T15:07:53.402Z,29.82
2019-06-10T15:10:26.889Z,31.68
2019-06-10T15:12:59.545Z,32.06
2019-06-10T15:15:33.688Z,33.89
2019-06-10T15:18:07.529Z,32.59
2019-06-10T15:20:46.474Z,31.80
2019-06-10T15:23:25.531Z,31.82
2019-06-10T15:25:59.422Z,32.55
2019-06-10T15:28:31.910Z,32.77
2019-06-10T15:31:04.973Z,33.31
2019-06-10T15:33:37.163Z,32.88
2019-06-10T15:36:11.233Z,32.88
2019-06-10T15:38:45.570Z,33.01
2019-06-10T15:41:19.925Z,33.14
2019-06-10T15:43:53.034Z,32.05
2019-06-10T15:46:25.699Z,32.76
2019-06-10T15:48:57.930Z,32.57
2019-06-10T15:51:32.998Z,33.77
2019-06-10T15:54:08.650Z,33.45
2019-06-10T15:56:51.152Z,32.78
2019-06-10T15:59:18.007Z,31.53
2019-06-10T16:01:49.838Z,32.17
2019-06-10T16:04:28.817Z,32.34
2019-06-10T16:07:02.901Z,31.34
2019-06-10T16:09:36.129Z,31.72
2019-06-10T16:12:14.728Z,32.28
2019-06-10T16:14:46.457Z,32.67
2019-06-10T16:17:21.109Z,32.03
2019-06-10T16:19:53.582Z,31.64
2019-06-10T16:22:27.821Z,31.77
2019-06-10T16:25:05.978Z,32.11
2019-06-10T16:27:47.193Z,32.02
2019-06-10T16:30:14.661Z,32.18
2019-06-10T16:32:48.484Z,32.94
2019-06-10T16:35:23.881Z,33.00
2019-06-10T16:37:59.034Z,33.42
2019-06-10T16:40:32.484Z,34.16
2019-06-10T16:43:04.767Z,34.88
2019-06-10T16:45:37.075Z,34.77
2019-06-10T16:48:12.847Z,34.61
2019-06-10T16:50:47.101Z,34.78
2019-06-10T16:53:19.920Z,35.63
2019-06-10T16:55:53.222Z,35.84
2019-06-10T16:58:28.173Z,35.86
2019-06-10T17:00:59.853Z,36.48
2019-06-10T17:03:33.875Z,36.87
2019-06-10T17:06:06.484Z,37.31
2019-06-10T17:08:39.013Z,38.17
2019-06-10T17:11:12.395Z,38.64
2019-06-10T17:13:45.958Z,38.30
2019-06-10T17:16:18.292Z,38.70
2019-06-10T17:18:55.312Z,39.05
2019-06-10T17:21:33.961Z,38.78
2019-06-10T17:24:04.182Z,38.32
2019-06-10T17:26:38.274Z,37.54
2019-06-10T17:29:10.761Z,36.44
2019-06-10T17:31:43.161Z,36.45
2019-06-10T17:34:15.719Z,36.54
2019-06-10T17:36:47.805Z,37.44
2019-06-10T17:39:21.282Z,38.34
2019-06-10T17:41:54.145Z,38.52
2019-06-10T17:44:29.194Z,38.38
2019-06-10T17:47:02.378Z,38.72
2019-06-10T17:49:35.016Z,39.67
2019-06-10T17:52:07.455Z,40.24
2019-06-10T17:54:44.501Z,40.45
2019-06-10T17:57:18.911Z,40.94
2019-06-10T17:59:53.887Z,41.58
2019-06-10T18:02:27.298Z,41.60
2019-06-10T18:05:00.344Z,41.14
2019-06-10T18:07:35.395Z,40.99
2019-06-10T18:10:07.462Z,40.66
2019-06-10T18:12:42.539Z,40.48
2019-06-10T18:15:15.576Z,40.41
2019-06-10T18:17:48.671Z,40.54
2019-06-10T18:20:24.539Z,40.53
2019-06-10T18:23:02.773Z,40.77
2019-06-10T18:25:36.768Z,41.24
2019-06-10T18:28:08.558Z,41.82
2019-06-10T18:30:43.277Z,42.29
2019-06-10T18:33:15.807Z,42.44
2019-06-10T18:35:49.570Z,42.88
2019-06-10T18:38:22.295Z,42.49
2019-06-10T18:40:54.703Z,42.58
2019-06-10T18:43:35.107Z,42.54
2019-06-10T18:46:07.484Z,42.11
2019-06-10T18:48:40.050Z,42.51
2019-06-10T18:51:16.263Z,42.72
2019-06-10T18:53:50.248Z,43.69
2019-06-10T18:56:27.648Z,43.89
2019-06-10T18:59:16.176Z,44.49
2019-06-10T19:01:39.526Z,45.02
2019-06-10T19:04:14.601Z,44.98
2019-06-10T19:06:47.801Z,45.27
2019-06-10T19:09:20.643Z,44.91
2019-06-10T19:11:54.780Z,45.25
2019-06-10T19:14:27.398Z,44.87
2019-06-10T19:17:02.995Z,44.92
2019-06-10T19:19:36.135Z,44.88
2019-06-10T19:22:09.872Z,44.53
2019-06-10T19:24:44.749Z,45.05
2019-06-10T19:27:17.233Z,45.72
2019-06-10T19:29:51.341Z,45.41
2019-06-10T19:32:26.452Z,45.31
2019-06-10T19:35:03.167Z,45.77
2019-06-10T19:37:37.127Z,45.97
2019-06-10T19:40:12.240Z,46.24
2019-06-10T19:42:44.784Z,45.78
2019-06-10T19:45:18.509Z,45.88
2019-06-10T19:47:52.255Z,46.12
2019-06-10T19:50:24.767Z,45.95
2019-06-10T19:52:58.579Z,45.91
2019-06-10T19:55:33.717Z,45.46
2019-06-10T19:58:10.464Z,45.63
2019-06-10T20:00:50.245Z,46.11
2019-06-10T20:03:17.248Z,46.17
2019-06-10T20:05:52.809Z,46.44
2019-06-10T20:08:26.797Z,46.83
2019-06-10T20:11:03.271Z,47.24
2019-06-10T20:13:34.877Z,47.19
2019-06-10T20:16:12.024Z,47.53
2019-06-10T20:18:47.587Z,48.12
2019-06-10T20:21:18.973Z,48.71
2019-06-10T20:23:53.067Z,48.81
2019-06-10T20:26:27.877Z,48.44
2019-06-10T20:29:03.614Z,48.59
2019-06-10T20:31:35.805Z,49.20
2019-06-10T20:34:08.553Z,49.08
2019-06-10T20:36:43.479Z,49.68
2019-06-10T20:39:15.514Z,49.66
2019-06-10T20:41:51.945Z,50.65
2019-06-10T20:44:23.046Z,51.09
2019-06-10T20:46:56.094Z,50.60
2019-06-10T20:49:33.367Z,50.57
2019-06-10T20:52:11.514Z,50.81
2019-06-10T20:54:43.378Z,49.64
2019-06-10T20:57:16.753Z,49.30
2019-06-10T20:59:49.860Z,50.36
2019-06-10T21:02:22.717Z,50.36
2019-06-10T21:04:56.234Z,50.70
2019-06-10T21:07:28.869Z,50.73
2019-06-10T21:10:03.162Z,50.55
2019-06-10T21:12:36.577Z,50.55
2019-06-10T21:15:08.992Z,50.99
2019-06-10T21:17:43.337Z,50.87
2019-06-10T21:20:15.951Z,50.61
2019-06-10T21:22:49.018Z,50.64
2019-06-10T21:25:24.455Z,50.47
2019-06-10T21:28:02.749Z,50.25
2019-06-10T21:30:40.834Z,50.85
2019-06-10T21:33:08.216Z,50.94
2019-06-10T21:35:44.109Z,51.27
2019-06-10T21:38:16.215Z,51.97
2019-06-10T21:40:49.771Z,52.49
2019-06-10T21:43:22.511Z,52.96
2019-06-10T21:45:57.653Z,52.88
2019-06-10T21:48:37.740Z,52.63
2019-06-10T21:51:13.368Z,53.12
2019-06-10T21:53:46.950Z,52.04
2019-06-10T21:56:19.344Z,53.30
2019-06-10T21:58:54.135Z,53.16
2019-06-10T22:01:27.509Z,53.53
2019-06-10T22:04:04.249Z,52.29
2019-06-10T22:06:35.558Z,51.99
2019-06-10T22:09:08.316Z,51.93
2019-06-10T22:11:42.271Z,51.93
2019-06-10T22:14:17.401Z,51.88
2019-06-10T22:16:50.930Z,52.16
2019-06-10T22:19:23.881Z,51.67
2019-06-10T22:21:56.858Z,51.85
2019-06-10T22:24:31.013Z,52.50
2019-06-10T22:27:04.044Z,52.82
2019-06-10T22:29:36.419Z,52.62
2019-06-10T22:32:12.840Z,53.57
2019-06-10T22:34:46.056Z,53.58
2019-06-10T22:37:18.747Z,53.49
2019-06-10T22:39:52.618Z,53.22
2019-06-10T22:42:26.695Z,53.09
2019-06-10T22:45:03.584Z,53.71
2019-06-10T22:47:34.631Z,54.53
2019-06-10T22:50:08.104Z,54.79
2019-06-10T22:52:42.578Z,53.76
2019-06-10T22:55:15.070Z,53.78
2019-06-10T22:57:48.679Z,54.00
2019-06-10T23:00:24.993Z,53.33
2019-06-10T23:03:19.024Z,53.70
2019-06-10T23:05:52.353Z,54.31
2019-06-10T23:08:25.315Z,54.71
2019-06-10T23:10:58.571Z,55.61
2019-06-10T23:13:33.096Z,56.00
2019-06-10T23:16:05.380Z,55.94
2019-06-10T23:18:37.888Z,56.70
2019-06-10T23:21:13.291Z,56.89
2019-06-10T23:23:44.467Z,56.91
2019-06-10T23:26:16.816Z,57.10
2019-06-10T23:28:49.804Z,55.47
2019-06-10T23:31:25.633Z,54.95
2019-06-10T23:33:58.431Z,55.60
2019-06-10T23:36:32.832Z,56.14
2019-06-10T23:39:07.491Z,55.88
2019-06-10T23:41:39.891Z,55.42
2019-06-10T23:44:12.258Z,55.48
2019-06-10T23:46:44.700Z,55.73
2019-06-10T23:49:18.915Z,55.88
2019-06-10T23:51:54.072Z,55.91
2019-06-10T23:54:25.889Z,55.84
2019-06-10T23:56:58.863Z,56.04
2019-06-10T23:59:33.219Z,56.02
